Time;durP1;ratioP1;P1;durP2;ratioP2;P2;SDS_P1;SDS_P2;PMS_P1;PMS_P2;Temp;Humidity;BMP_temperature;BMP_pressure;BME280_temperature;BME280_humidity;BME280_pressure;Samples;Min_cycle;Max_cycle;Signal;HPM_P1;HPM_P2
2023/04/30 00:01:58;;;;;;;0.10;0.10;;;11.10;99.90;;;;;;5088384;28;20062;-73
2023/04/30 00:04:24;;;;;;;0.10;0.10;;;11.10;99.90;;;;;;5086792;28;20016;-74
2023/04/30 00:06:49;;;;;;;0.00;0.00;;;11.00;99.90;;;;;;5084267;28;20371;-73
2023/04/30 00:09:15;;;;;;;0.25;0.25;;;10.90;99.90;;;;;;5084415;28;20065;-73
2023/04/30 00:11:41;;;;;;;0.10;0.10;;;10.90;99.90;;;;;;5083925;28;20020;-72
2023/04/30 00:14:07;;;;;;;0.10;0.10;;;10.80;99.90;;;;;;5085049;28;20032;-73
2023/04/30 00:16:32;;;;;;;0.10;0.10;;;10.80;99.90;;;;;;5083687;28;20044;-74
2023/04/30 00:18:58;;;;;;;0.00;0.00;;;10.80;99.90;;;;;;5083617;28;20020;-73
2023/04/30 00:21:24;;;;;;;0.00;0.00;;;10.70;99.90;;;;;;5084245;28;20028;-73
2023/04/30 00:23:49;;;;;;;0.00;0.00;;;10.70;99.90;;;;;;5083989;28;20024;-72
2023/04/30 00:26:15;;;;;;;0.10;0.10;;;10.60;99.90;;;;;;5081346;28;20167;-73
2023/04/30 00:28:41;;;;;;;0.10;0.10;;;10.60;99.90;;;;;;5082979;28;20059;-73
2023/04/30 00:31:08;;;;;;;0.00;0.00;;;10.50;99.90;;;;;;5083918;28;20043;-73
2023/04/30 00:33:34;;;;;;;0.10;0.10;;;10.50;99.90;;;;;;5085264;28;20095;-73
2023/04/30 00:36:00;;;;;;;0.00;0.00;;;10.50;99.90;;;;;;5102036;28;20067;-73
2023/04/30 00:38:25;;;;;;;0.10;0.10;;;10.40;99.90;;;;;;5101516;28;20016;-75
2023/04/30 00:40:52;;;;;;;0.68;0.68;;;10.40;99.90;;;;;;5098605;28;20127;-73
2023/04/30 00:43:17;;;;;;;0.00;0.00;;;10.40;99.90;;;;;;5100251;28;20020;-74
2023/04/30 00:45:43;;;;;;;0.08;0.08;;;10.30;99.90;;;;;;5099170;28;20039;-74
2023/04/30 00:48:09;;;;;;;0.10;0.10;;;10.30;99.90;;;;;;5104046;28;20327;-74
2023/04/30 00:50:35;;;;;;;0.00;0.00;;;10.20;99.90;;;;;;5083673;28;20040;-73
2023/04/30 00:53:01;;;;;;;0.10;0.10;;;10.20;99.90;;;;;;5083590;28;20721;-73
2023/04/30 00:55:27;;;;;;;0.00;0.00;;;10.10;99.90;;;;;;5084553;28;20055;-73
2023/04/30 00:57:54;;;;;;;0.00;0.00;;;10.10;99.90;;;;;;5088250;28;20019;-73
2023/04/30 01:00:20;;;;;;;0.00;0.00;;;10.10;99.90;;;;;;5087819;28;20579;-74
2023/04/30 01:02:47;;;;;;;0.10;0.10;;;10.00;99.90;;;;;;5091407;28;20445;-75
2023/04/30 01:05:13;;;;;;;0.00;0.00;;;10.00;99.90;;;;;;5106634;28;20024;-74
2023/04/30 01:07:45;;;;;;;0.08;0.08;;;10.00;99.90;;;;;;5095253;28;20452;-74
2023/04/30 01:10:13;;;;;;;0.10;0.10;;;9.90;99.90;;;;;;5103929;28;20024;-73
2023/04/30 01:13:06;;;;;;;0.00;0.00;;;9.90;99.90;;;;;;5100899;28;20016;-72
2023/04/30 01:15:45;;;;;;;0.10;0.10;;;9.80;99.90;;;;;;5094244;28;20020;-73
2023/04/30 01:18:40;;;;;;;0.10;0.10;;;9.80;99.90;;;;;;5096521;28;20358;-72
2023/04/30 01:21:08;;;;;;;0.10;0.10;;;9.80;99.90;;;;;;5084560;28;20044;-72
2023/04/30 01:24:00;;;;;;;0.00;0.00;;;9.80;99.90;;;;;;5088670;28;20326;-71
2023/04/30 01:26:48;;;;;;;0.00;0.00;;;9.80;99.90;;;;;;5089245;28;20300;-73
2023/04/30 01:29:18;;;;;;;0.00;0.00;;;9.80;99.90;;;;;;5087008;28;20016;-73
2023/04/30 01:31:44;;;;;;;0.00;0.00;;;9.70;99.90;;;;;;5087903;28;20028;-74
2023/04/30 01:34:10;;;;;;;0.10;0.10;;;9.70;99.90;;;;;;5086566;28;20138;-72
2023/04/30 01:37:06;;;;;;;0.00;0.00;;;9.70;99.90;;;;;;5086748;28;20013;-73
2023/04/30 01:39:50;;;;;;;0.10;0.10;;;9.70;99.90;;;;;;5088154;28;20058;-73
2023/04/30 01:42:20;;;;;;;0.10;0.10;;;9.60;99.90;;;;;;5084140;28;20593;-73
2023/04/30 01:45:13;;;;;;;0.00;0.00;;;9.60;99.90;;;;;;5084702;28;20521;-73
2023/04/30 01:48:03;;;;;;;0.00;0.00;;;9.50;99.90;;;;;;5085377;28;20028;-74
2023/04/30 01:50:51;;;;;;;0.10;0.10;;;9.50;99.90;;;;;;5082896;28;20036;-72
2023/04/30 01:53:23;;;;;;;0.08;0.08;;;9.50;99.90;;;;;;5081779;28;20534;-73
2023/04/30 01:55:55;;;;;;;0.00;0.00;;;9.50;99.90;;;;;;5083819;28;20239;-73
2023/04/30 01:58:24;;;;;;;0.10;0.10;;;9.50;99.90;;;;;;5079497;28;20028;-74
2023/04/30 02:00:50;;;;;;;0.10;0.10;;;8.70;99.90;;;;;;5083884;28;20020;-73
2023/04/30 02:03:16;;;;;;;0.00;0.00;;;9.50;99.90;;;;;;5086454;28;20031;-73
2023/04/30 02:05:42;;;;;;;0.10;0.10;;;9.40;99.90;;;;;;5080303;28;20020;-72
2023/04/30 02:08:07;;;;;;;0.10;0.10;;;9.40;99.90;;;;;;5080021;28;20399;-73
2023/04/30 02:10:33;;;;;;;0.00;0.00;;;9.40;99.90;;;;;;5079276;28;20306;-73
2023/04/30 02:12:59;;;;;;;0.00;0.00;;;9.40;99.90;;;;;;5076911;28;20577;-72
2023/04/30 02:15:25;;;;;;;0.10;0.10;;;9.40;99.90;;;;;;5077915;28;20032;-72
2023/04/30 02:17:50;;;;;;;0.00;0.00;;;9.40;99.90;;;;;;5080255;28;20500;-72
2023/04/30 02:20:17;;;;;;;0.00;0.00;;;;;;;;;;5087429;28;20027;-72
2023/04/30 02:22:43;;;;;;;0.10;0.10;;;9.30;99.90;;;;;;5096814;28;20072;-73
2023/04/30 02:25:11;;;;;;;0.00;0.00;;;9.30;99.90;;;;;;5100001;28;20039;-74
2023/04/30 02:27:37;;;;;;;0.10;0.10;;;9.20;99.90;;;;;;5098681;28;20552;-72
2023/04/30 02:30:03;;;;;;;0.05;0.05;;;9.20;99.90;;;;;;5098210;28;20066;-77
2023/04/30 02:32:29;;;;;;;0.00;0.00;;;9.20;99.90;;;;;;5099390;28;20032;-74
2023/04/30 02:34:55;;;;;;;0.32;0.32;;;9.10;99.90;;;;;;5098293;28;20063;-72
2023/04/30 02:37:21;;;;;;;3.75;3.65;;;9.10;99.90;;;;;;5087134;28;20020;-73
2023/04/30 02:39:47;;;;;;;0.00;0.00;;;9.10;99.90;;;;;;5083741;28;20706;-73
2023/04/30 02:42:13;;;;;;;0.10;0.10;;;9.10;99.90;;;;;;5083312;28;20030;-76
2023/04/30 02:44:39;;;;;;;0.10;0.10;;;9.10;99.90;;;;;;5082787;28;20021;-72
2023/04/30 02:47:04;;;;;;;0.10;0.10;;;9.10;99.90;;;;;;5081078;28;20419;-72
2023/04/30 02:49:30;;;;;;;0.43;0.43;;;9.10;99.90;;;;;;5086967;28;20392;-74
2023/04/30 02:51:56;;;;;;;0.00;0.00;;;9.00;99.90;;;;;;5080703;28;20388;-72
2023/04/30 02:54:22;;;;;;;0.00;0.00;;;9.00;99.90;;;;;;5079597;28;20048;-72
2023/04/30 02:56:50;;;;;;;0.00;0.00;;;9.00;99.90;;;;;;5080752;28;20552;-73
2023/04/30 02:59:16;;;;;;;0.00;0.00;;;9.00;99.90;;;;;;5081583;28;20020;-72
2023/04/30 03:01:42;;;;;;;0.10;0.10;;;9.00;99.90;;;;;;5082677;28;20394;-73
2023/04/30 03:04:07;;;;;;;0.10;0.10;;;8.90;99.90;;;;;;5083792;28;20193;-73
2023/04/30 03:06:33;;;;;;;2.70;2.60;;;8.90;99.90;;;;;;5085672;28;20634;-73
2023/04/30 03:09:00;;;;;;;0.10;0.10;;;8.80;99.90;;;;;;5086736;28;20284;-73
2023/04/30 03:11:26;;;;;;;0.65;0.65;;;8.80;99.90;;;;;;5083559;28;20089;-72
2023/04/30 03:13:52;;;;;;;0.00;0.00;;;8.80;99.90;;;;;;5085517;28;20027;-72
2023/04/30 03:16:19;;;;;;;0.00;0.00;;;8.80;99.90;;;;;;5087859;28;20074;-73
2023/04/30 03:18:46;;;;;;;0.20;0.20;;;8.80;99.90;;;;;;5084793;28;20074;-73
2023/04/30 03:21:12;;;;;;;0.03;0.03;;;8.80;99.90;;;;;;5082450;28;20030;-72
2023/04/30 03:23:38;;;;;;;0.03;0.03;;;8.70;99.90;;;;;;5081771;28;20713;-73
2023/04/30 03:26:04;;;;;;;0.00;0.00;;;8.70;99.90;;;;;;5081718;28;20028;-73
2023/04/30 03:28:29;;;;;;;0.00;0.00;;;8.70;99.90;;;;;;5082283;28;20316;-72
2023/04/30 03:30:55;;;;;;;0.00;0.00;;;8.70;99.90;;;;;;5082285;28;20238;-72
2023/04/30 03:33:21;;;;;;;0.08;0.08;;;8.70;99.90;;;;;;5081583;28;20069;-72
2023/04/30 03:35:48;;;;;;;0.10;0.10;;;8.70;99.90;;;;;;5084957;28;20304;-72
2023/04/30 03:38:14;;;;;;;0.17;0.17;;;8.60;99.90;;;;;;5084560;28;20044;-72
2023/04/30 03:40:40;;;;;;;0.00;0.00;;;8.60;99.90;;;;;;5088101;28;20035;-72
2023/04/30 03:43:05;;;;;;;0.00;0.00;;;8.60;99.90;;;;;;5087398;28;20436;-73
2023/04/30 03:45:31;;;;;;;0.00;0.00;;;8.60;99.90;;;;;;5083429;28;20577;-72
2023/04/30 03:47:57;;;;;;;0.00;0.00;;;8.60;99.90;;;;;;5086039;28;20107;-72
2023/04/30 03:50:23;;;;;;;0.25;0.25;;;8.70;99.90;;;;;;5084710;28;20028;-72
2023/04/30 03:52:48;;;;;;;0.05;0.05;;;8.70;99.90;;;;;;5083820;28;20016;-72
2023/04/30 03:55:15;;;;;;;0.00;0.00;;;8.70;99.90;;;;;;5081236;28;20100;-72
2023/04/30 03:57:41;;;;;;;0.22;0.22;;;8.70;99.90;;;;;;5083644;28;20024;-72
2023/04/30 04:00:09;;;;;;;0.00;0.00;;;8.80;99.90;;;;;;5084092;28;20166;-73
2023/04/30 04:02:35;;;;;;;0.00;0.00;;;8.80;99.90;;;;;;5085089;28;20037;-71
2023/04/30 04:05:01;;;;;;;0.68;0.68;;;8.70;99.90;;;;;;5085970;28;20024;-73
2023/04/30 04:07:27;;;;;;;0.00;0.00;;;8.80;99.90;;;;;;5084169;28;20382;-72
2023/04/30 04:09:52;;;;;;;0.00;0.00;;;8.80;99.90;;;;;;5082475;28;20108;-72
2023/04/30 04:12:18;;;;;;;0.00;0.00;;;8.90;99.90;;;;;;5080957;28;20223;-72
2023/04/30 04:14:44;;;;;;;0.00;0.00;;;9.00;99.90;;;;;;5081898;28;20090;-72
2023/04/30 04:17:11;;;;;;;0.15;0.15;;;9.00;99.90;;;;;;5080898;28;20073;-73
2023/04/30 04:19:37;;;;;;;0.00;0.00;;;9.10;99.90;;;;;;5082059;28;20028;-73
2023/04/30 04:22:03;;;;;;;0.85;0.82;;;9.10;99.90;;;;;;5082668;28;20528;-73
2023/04/30 04:24:29;;;;;;;0.10;0.10;;;9.20;99.90;;;;;;5081319;28;20027;-73
2023/04/30 04:26:55;;;;;;;0.00;0.00;;;9.20;99.90;;;;;;5082650;28;20024;-72
2023/04/30 04:29:20;;;;;;;0.00;0.00;;;9.30;99.90;;;;;;5084051;28;20460;-72
2023/04/30 04:31:48;;;;;;;0.00;0.00;;;9.30;99.90;;;;;;5082739;28;20550;-72
2023/04/30 04:34:13;;;;;;;0.05;0.05;;;9.40;99.90;;;;;;5081919;28;20063;-72
2023/04/30 04:36:40;;;;;;;0.00;0.00;;;9.40;99.90;;;;;;5082718;28;20055;-72
2023/04/30 04:39:06;;;;;;;0.08;0.08;;;9.40;99.90;;;;;;5082818;28;20024;-72
2023/04/30 04:41:32;;;;;;;0.40;0.40;;;9.40;99.90;;;;;;5087614;28;20335;-73
2023/04/30 04:44:02;;;;;;;0.00;0.00;;;9.50;99.90;;;;;;5083630;28;20028;-72
2023/04/30 04:46:28;;;;;;;0.10;0.10;;;9.50;99.90;;;;;;5084981;28;20513;-73
2023/04/30 04:48:54;;;;;;;0.10;0.10;;;9.60;99.90;;;;;;5086929;28;20316;-73
2023/04/30 04:51:20;;;;;;;0.10;0.10;;;8.40;99.90;;;;;;5082727;28;20043;-72
2023/04/30 04:53:46;;;;;;;0.10;0.10;;;9.70;99.90;;;;;;5082975;28;20244;-74
2023/04/30 04:56:12;;;;;;;0.10;0.10;;;9.80;99.90;;;;;;5085546;28;20382;-74
2023/04/30 04:58:38;;;;;;;0.00;0.00;;;9.80;99.90;;;;;;5080171;28;20489;-72
2023/04/30 05:01:05;;;;;;;0.05;0.05;;;9.80;99.90;;;;;;5081405;28;20024;-73
2023/04/30 05:03:32;;;;;;;0.10;0.10;;;10.00;99.90;;;;;;5083968;28;20529;-72
2023/04/30 05:05:58;;;;;;;0.05;0.05;;;10.10;99.90;;;;;;5083684;28;20032;-72
2023/04/30 05:08:24;;;;;;;0.10;0.10;;;10.10;99.90;;;;;;5080170;28;20027;-72
2023/04/30 05:10:50;;;;;;;0.05;0.05;;;10.10;99.90;;;;;;5079564;28;20132;-72
2023/04/30 05:13:16;;;;;;;0.10;0.10;;;10.20;99.90;;;;;;5080600;28;20361;-73
2023/04/30 05:15:42;;;;;;;0.10;0.10;;;10.20;99.90;;;;;;5081769;28;20038;-72
2023/04/30 05:18:07;;;;;;;0.10;0.10;;;10.30;99.90;;;;;;5080163;28;20031;-74
2023/04/30 05:20:33;;;;;;;0.10;0.10;;;9.00;99.90;;;;;;5084285;28;20024;-73
2023/04/30 05:22:59;;;;;;;0.10;0.10;;;10.40;99.90;;;;;;5083450;28;20483;-73
2023/04/30 05:25:25;;;;;;;0.10;0.10;;;10.50;99.90;;;;;;5085331;28;20099;-73
2023/04/30 05:27:51;;;;;;;0.10;0.10;;;10.60;99.90;;;;;;5087912;28;20197;-73
2023/04/30 05:30:16;;;;;;;2.40;2.30;;;10.60;99.90;;;;;;5082647;28;20237;-73
2023/04/30 05:32:43;;;;;;;0.20;0.20;;;10.70;99.90;;;;;;5088950;28;20420;-71
2023/04/30 05:35:08;;;;;;;0.10;0.10;;;10.70;99.90;;;;;;5084832;28;20245;-73
2023/04/30 05:37:36;;;;;;;1.33;1.33;;;10.70;99.90;;;;;;5082633;28;20054;-72
2023/04/30 05:40:01;;;;;;;0.30;0.30;;;10.90;99.90;;;;;;5088971;28;20031;-73
2023/04/30 05:42:27;;;;;;;0.10;0.10;;;11.10;99.90;;;;;;5083618;28;20378;-71
2023/04/30 05:44:53;;;;;;;0.32;0.32;;;11.30;99.90;;;;;;5083028;28;20027;-73
2023/04/30 05:47:19;;;;;;;0.10;0.10;;;11.40;99.90;;;;;;5078701;28;20032;-77
2023/04/30 05:49:45;;;;;;;2.33;2.22;;;11.50;99.90;;;;;;5083460;28;20028;-74
2023/04/30 05:52:10;;;;;;;0.17;0.17;;;11.70;99.90;;;;;;5079442;28;20109;-73
2023/04/30 05:54:36;;;;;;;0.20;0.20;;;11.90;99.90;;;;;;5079461;28;20044;-72
2023/04/30 05:57:02;;;;;;;0.20;0.20;;;12.10;99.90;;;;;;5080736;28;20016;-74
2023/04/30 05:59:28;;;;;;;0.10;0.10;;;12.10;99.90;;;;;;5078920;28;20529;-72
2023/04/30 06:01:54;;;;;;;0.30;0.30;;;12.20;99.90;;;;;;5078332;28;20024;-73
2023/04/30 06:04:20;;;;;;;0.10;0.10;;;12.20;99.90;;;;;;5078997;28;20031;-73
2023/04/30 06:06:45;;;;;;;0.20;0.20;;;12.30;99.90;;;;;;5078088;28;20016;-72
2023/04/30 06:09:11;;;;;;;0.15;0.15;;;12.40;99.90;;;;;;5079016;28;20051;-78
2023/04/30 06:11:37;;;;;;;0.10;0.10;;;12.50;99.90;;;;;;5077912;28;20533;-79
2023/04/30 06:14:03;;;;;;;0.32;0.32;;;12.50;99.90;;;;;;5076497;28;20385;-73
2023/04/30 06:16:29;;;;;;;2.13;2.08;;;12.50;99.90;;;;;;5078331;28;20620;-71
2023/04/30 06:18:55;;;;;;;0.40;0.40;;;12.50;99.90;;;;;;5078271;28;20111;-80
2023/04/30 06:21:24;;;;;;;0.20;0.20;;;12.50;99.90;;;;;;5078378;28;20091;-89
2023/04/30 06:23:51;;;;;;;0.20;0.20;;;12.60;99.90;;;;;;5078906;28;20122;-86
2023/04/30 06:26:18;;;;;;;0.10;0.10;;;12.60;99.90;;;;;;5079102;28;20031;-85
2023/04/30 06:28:45;;;;;;;0.20;0.20;;;12.60;99.90;;;;;;5078853;28;20058;-79
2023/04/30 06:31:11;;;;;;;0.10;0.10;;;12.60;99.90;;;;;;5078877;28;20016;-73
2023/04/30 06:33:37;;;;;;;0.20;0.20;;;12.70;99.90;;;;;;5078450;28;20228;-79
2023/04/30 06:36:03;;;;;;;0.10;0.10;;;12.90;99.90;;;;;;5077925;28;20593;-74
2023/04/30 06:38:29;;;;;;;0.10;0.10;;;13.00;99.90;;;;;;5077770;28;20093;-77
2023/04/30 06:40:54;;;;;;;1.08;1.08;;;13.00;99.90;;;;;;5077228;28;20510;-79
2023/04/30 06:43:20;;;;;;;0.15;0.15;;;13.10;99.90;;;;;;5077965;28;20021;-76
2023/04/30 06:45:46;;;;;;;0.10;0.10;;;13.20;99.90;;;;;;5076002;28;20502;-75
2023/04/30 06:48:12;;;;;;;0.20;0.20;;;13.30;99.90;;;;;;5077347;28;20028;-76
2023/04/30 06:50:43;;;;;;;0.20;0.20;;;13.30;99.90;;;;;;5077550;28;20020;-74
2023/04/30 06:53:10;;;;;;;0.10;0.10;;;13.40;99.90;;;;;;5077355;28;20291;-82
2023/04/30 06:55:36;;;;;;;0.20;0.20;;;13.60;99.90;;;;;;5077118;28;20219;-72
2023/04/30 06:58:04;;;;;;;0.17;0.17;;;13.60;99.90;;;;;;5077633;28;20107;-75
2023/04/30 07:00:30;;;;;;;0.20;0.20;;;13.80;99.90;;;;;;5078068;28;20059;-78
2023/04/30 07:02:59;;;;;;;0.10;0.10;;;14.00;99.90;;;;;;5078299;28;20024;-78
2023/04/30 07:05:25;;;;;;;0.40;0.40;;;14.10;99.90;;;;;;5078423;28;20552;-80
2023/04/30 07:07:51;;;;;;;0.13;0.13;;;14.30;99.90;;;;;;5077982;28;20089;-78
2023/04/30 07:10:17;;;;;;;0.10;0.10;;;14.50;99.90;;;;;;5077790;28;20331;-75
2023/04/30 07:12:43;;;;;;;0.60;0.60;;;14.60;99.90;;;;;;5077964;28;20046;-75
2023/04/30 07:15:10;;;;;;;0.20;0.20;;;14.70;99.90;;;;;;5077296;28;20087;-79
2023/04/30 07:17:37;;;;;;;0.20;0.20;;;14.80;99.90;;;;;;5078991;28;20085;-78
2023/04/30 07:20:03;;;;;;;0.20;0.20;;;14.90;99.90;;;;;;5079584;28;20024;-81
2023/04/30 07:22:30;;;;;;;0.10;0.10;;;15.00;99.90;;;;;;5078228;28;20125;-78
2023/04/30 07:24:56;;;;;;;0.10;0.10;;;14.90;99.90;;;;;;5078066;28;20015;-75
2023/04/30 07:27:22;;;;;;;0.52;0.52;;;14.90;99.90;;;;;;5077688;28;20659;-76
2023/04/30 07:29:48;;;;;;;0.90;0.90;;;15.00;99.90;;;;;;5077709;28;20024;-74
2023/04/30 07:32:15;;;;;;;0.10;0.10;;;14.90;99.90;;;;;;5077258;28;20721;-73
2023/04/30 07:34:41;;;;;;;0.20;0.20;;;14.90;99.90;;;;;;5076253;28;20028;-84
2023/04/30 07:37:08;;;;;;;0.15;0.15;;;15.00;99.90;;;;;;5077646;28;20028;-74
2023/04/30 07:39:37;;;;;;;0.10;0.10;;;15.10;99.90;;;;;;5077157;28;20026;-77
2023/04/30 07:42:03;;;;;;;0.10;0.10;;;15.20;99.90;;;;;;5076911;28;20106;-80
2023/04/30 07:44:30;;;;;;;1.17;1.13;;;15.40;99.90;;;;;;5077966;28;20514;-72
2023/04/30 07:46:56;;;;;;;0.15;0.15;;;15.40;99.90;;;;;;5076701;28;20036;-73
2023/04/30 07:49:22;;;;;;;0.28;0.28;;;15.50;99.90;;;;;;5080805;28;20028;-72
2023/04/30 07:51:48;;;;;;;0.10;0.10;;;15.70;99.90;;;;;;5080512;28;20208;-73
2023/04/30 07:54:13;;;;;;;0.10;0.10;;;15.90;99.90;;;;;;5080057;28;20048;-73
2023/04/30 07:56:40;;;;;;;0.10;0.10;;;16.20;99.90;;;;;;5080756;28;20020;-72
2023/04/30 07:59:06;;;;;;;0.10;0.10;;;16.50;99.90;;;;;;5080519;28;20020;-74
2023/04/30 08:01:32;;;;;;;0.10;0.10;;;16.60;99.90;;;;;;5079228;28;20031;-72
2023/04/30 08:03:57;;;;;;;0.10;0.10;;;16.70;99.90;;;;;;5080477;28;20023;-72
2023/04/30 08:06:24;;;;;;;0.10;0.10;;;16.80;99.90;;;;;;5079486;28;20107;-71
2023/04/30 08:08:49;;;;;;;2.47;2.28;;;17.10;99.90;;;;;;5080005;28;20023;-72
2023/04/30 08:11:15;;;;;;;0.10;0.10;;;17.30;99.90;;;;;;5079993;28;20016;-71
2023/04/30 08:13:42;;;;;;;0.30;0.30;;;17.50;99.90;;;;;;5079872;28;20225;-71
2023/04/30 08:16:08;;;;;;;1.30;1.25;;;17.60;99.90;;;;;;5079714;28;20759;-72
2023/04/30 08:18:33;;;;;;;0.10;0.10;;;17.60;99.90;;;;;;5080657;28;20024;-73
2023/04/30 08:21:00;;;;;;;0.30;0.30;;;17.60;99.90;;;;;;5080501;28;20030;-70
2023/04/30 08:23:26;;;;;;;0.20;0.20;;;17.50;99.90;;;;;;5082602;28;20796;-72
2023/04/30 08:25:52;;;;;;;0.17;0.17;;;17.30;99.90;;;;;;5080642;28;20023;-73
2023/04/30 08:28:18;;;;;;;0.10;0.10;;;17.40;99.90;;;;;;5082092;28;20028;-72
2023/04/30 08:30:44;;;;;;;0.20;0.20;;;17.70;99.90;;;;;;5081132;28;20569;-74
2023/04/30 08:33:10;;;;;;;0.10;0.10;;;17.90;99.90;;;;;;5079677;28;20024;-74
2023/04/30 08:35:36;;;;;;;0.10;0.10;;;18.00;99.90;;;;;;5080602;28;20054;-80
2023/04/30 08:38:02;;;;;;;0.28;0.28;;;18.10;99.90;;;;;;5080036;28;20031;-80
2023/04/30 08:40:29;;;;;;;0.10;0.10;;;18.10;99.90;;;;;;5079680;28;20032;-82
2023/04/30 08:43:05;;;;;;;0.05;0.05;;;18.30;99.90;;;;;;5080247;28;20020;-75
2023/04/30 08:45:40;;;;;;;0.00;0.00;;;18.30;99.90;;;;;;5080305;28;20030;-72
2023/04/30 08:48:10;;;;;;;0.65;0.65;;;18.30;99.90;;;;;;5079569;28;20504;-79
2023/04/30 08:50:36;;;;;;;1.73;1.63;;;18.50;99.90;;;;;;5079432;28;20025;-78
2023/04/30 08:53:02;;;;;;;3.50;3.30;;;18.60;99.90;;;;;;5079339;28;20027;-73
2023/04/30 08:55:28;;;;;;;0.10;0.10;;;18.60;99.90;;;;;;5079187;28;20363;-79
2023/04/30 08:57:54;;;;;;;0.55;0.55;;;18.40;99.90;;;;;;5079112;28;20203;-72
2023/04/30 09:00:20;;;;;;;0.00;0.00;;;18.20;99.90;;;;;;5077596;28;20494;-73
2023/04/30 09:02:48;;;;;;;0.63;0.63;;;18.00;99.90;;;;;;5079195;28;20009;-71
2023/04/30 09:05:14;;;;;;;3.22;3.08;;;17.70;99.90;;;;;;5078381;28;20525;-72
2023/04/30 09:07:44;;;;;;;0.10;0.10;;;17.20;99.90;;;;;;5078536;28;20047;-73
2023/04/30 09:10:15;;;;;;;0.30;0.30;;;16.80;99.90;;;;;;5079075;28;20089;-76
2023/04/30 09:12:44;;;;;;;0.75;0.75;;;16.40;99.90;;;;;;5079137;28;20463;-76
2023/04/30 09:15:11;;;;;;;0.32;0.32;;;16.00;99.90;;;;;;5078554;28;20107;-74
2023/04/30 09:17:37;;;;;;;3.50;3.20;;;17.60;99.90;;;;;;5079092;28;20536;-74
2023/04/30 09:20:07;;;;;;;0.15;0.15;;;15.10;99.90;;;;;;5078884;28;20032;-74
2023/04/30 09:22:35;;;;;;;1.98;1.88;;;15.00;99.90;;;;;;5079045;28;20022;-75
2023/04/30 09:25:01;;;;;;;0.17;0.17;;;14.80;99.90;;;;;;5079422;28;20023;-75
2023/04/30 09:27:27;;;;;;;0.10;0.10;;;;;;;;;;5079280;28;20024;-73
2023/04/30 09:29:53;;;;;;;1.10;1.10;;;14.60;99.90;;;;;;5079554;28;20193;-79
2023/04/30 09:32:19;;;;;;;0.45;0.45;;;14.50;99.90;;;;;;5078551;28;20525;-82
2023/04/30 09:34:44;;;;;;;2.70;2.50;;;14.40;99.90;;;;;;5079016;28;20027;-85
2023/04/30 09:37:11;;;;;;;0.20;0.20;;;14.40;99.90;;;;;;5078827;28;20493;-72
2023/04/30 09:39:47;;;;;;;0.38;0.38;;;14.50;99.90;;;;;;5078425;28;20016;-73
2023/04/30 09:42:13;;;;;;;2.58;2.45;;;14.70;99.90;;;;;;5078447;28;20016;-76
2023/04/30 09:44:40;;;;;;;0.20;0.20;;;14.80;99.90;;;;;;5076734;28;20058;-74
2023/04/30 09:47:15;;;;;;;0.30;0.30;;;14.90;99.90;;;;;;5078459;28;20103;-72
2023/04/30 09:49:50;;;;;;;1.00;1.00;;;15.10;99.90;;;;;;5078189;28;20646;-72
2023/04/30 09:52:17;;;;;;;0.20;0.20;;;15.10;99.90;;;;;;5077937;28;20087;-73
2023/04/30 09:54:44;;;;;;;0.20;0.20;;;15.20;99.90;;;;;;5078475;28;20048;-77
2023/04/30 09:57:13;;;;;;;0.28;0.28;;;15.30;99.90;;;;;;5076814;28;20569;-73
2023/04/30 09:59:45;;;;;;;0.20;0.20;;;15.40;99.90;;;;;;5078410;28;20097;-80
2023/04/30 10:02:14;;;;;;;0.10;0.10;;;15.50;99.90;;;;;;5077796;28;20016;-73
2023/04/30 10:04:47;;;;;;;0.20;0.20;;;15.60;99.90;;;;;;5078437;28;20070;-79
2023/04/30 10:07:18;;;;;;;1.02;1.00;;;15.60;99.90;;;;;;5077878;28;20130;-72
2023/04/30 10:10:01;;;;;;;0.20;0.20;;;15.70;99.90;;;;;;5077420;28;20027;-72
2023/04/30 10:12:39;;;;;;;0.88;0.88;;;15.60;99.90;;;;;;5077870;28;20020;-72
2023/04/30 10:15:29;;;;;;;0.10;0.10;;;15.60;99.90;;;;;;5077787;28;20692;-72
2023/04/30 10:18:04;;;;;;;0.10;0.10;;;15.60;99.90;;;;;;5077555;28;20514;-73
2023/04/30 10:20:35;;;;;;;0.38;0.38;;;15.70;99.90;;;;;;5078046;28;20028;-72
2023/04/30 10:23:01;;;;;;;7.38;2.55;;;15.70;99.90;;;;;;5077558;28;20016;-73
2023/04/30 10:25:27;;;;;;;0.90;0.90;;;15.80;99.90;;;;;;5077590;28;20554;-72
2023/04/30 10:27:53;;;;;;;2.20;2.05;;;15.80;99.90;;;;;;5077891;28;20008;-73
2023/04/30 10:30:21;;;;;;;0.73;0.73;;;16.00;99.90;;;;;;5076105;28;20580;-73
2023/04/30 10:32:56;;;;;;;0.20;0.20;;;16.10;99.90;;;;;;5077358;28;20019;-76
2023/04/30 10:35:34;;;;;;;1.65;1.58;;;16.20;99.90;;;;;;5077254;28;20060;-77
2023/04/30 10:38:11;;;;;;;0.10;0.10;;;16.50;99.90;;;;;;5079369;28;20035;-79
2023/04/30 10:40:37;;;;;;;0.17;0.17;;;16.90;99.90;;;;;;5078758;28;20020;-76
2023/04/30 10:43:03;;;;;;;0.10;0.10;;;17.10;99.90;;;;;;5077637;28;20023;-79
2023/04/30 10:45:36;;;;;;;0.20;0.20;;;17.40;99.90;;;;;;5077502;28;20073;-76
2023/04/30 10:48:03;;;;;;;;;;;17.50;99.90;;;;;;5078207;28;20024;-76
2023/04/30 10:50:29;;;;;;;0.55;0.55;;;17.70;99.90;;;;;;5077928;28;19908;-77
2023/04/30 10:53:02;;;;;;;1.00;1.00;;;17.80;99.90;;;;;;5075810;28;20024;-73
2023/04/30 10:55:29;;;;;;;0.10;0.10;;;18.00;99.90;;;;;;5078061;28;20182;-72
2023/04/30 10:57:57;;;;;;;1.58;1.48;;;17.70;99.90;;;;;;5078342;28;20059;-78
2023/04/30 11:00:28;;;;;;;0.10;0.10;;;17.50;99.90;;;;;;5077488;28;20478;-81
2023/04/30 11:03:01;;;;;;;0.10;0.10;;;17.30;99.90;;;;;;5078020;28;20032;-76
2023/04/30 11:05:38;;;;;;;0.17;0.17;;;16.70;99.90;;;;;;5077374;28;20020;-73
2023/04/30 11:08:05;;;;;;;0.10;0.10;;;16.90;99.90;;;;;;5077471;28;20095;-73
2023/04/30 11:10:34;;;;;;;0.10;0.10;;;16.60;99.90;;;;;;5077289;28;20012;-75
2023/04/30 11:13:09;;;;;;;0.10;0.10;;;16.40;99.90;;;;;;5077106;28;20141;-73
2023/04/30 11:15:41;;;;;;;0.20;0.20;;;16.40;99.90;;;;;;5077197;28;20046;-74
2023/04/30 11:18:07;;;;;;;0.10;0.10;;;17.90;99.90;;;;;;5076883;28;20097;-76
2023/04/30 11:20:48;;;;;;;0.63;0.63;;;16.30;99.90;;;;;;5076967;28;20085;-73
2023/04/30 11:23:15;;;;;;;5.90;5.53;;;16.20;99.90;;;;;;5080741;28;20194;-74
2023/04/30 11:25:46;;;;;;;0.10;0.10;;;16.00;99.90;;;;;;5081495;28;20047;-74
2023/04/30 11:28:48;;;;;;;0.40;0.40;;;15.80;99.90;;;;;;5081385;28;20031;-72
2023/04/30 11:31:15;;;;;;;1.75;1.67;;;16.40;99.90;;;;;;5081050;28;20717;-73
2023/04/30 11:33:40;;;;;;;0.10;0.10;;;17.10;99.90;;;;;;5081116;28;20518;-73
2023/04/30 11:36:06;;;;;;;25.52;3.03;;;17.70;99.90;;;;;;5081675;28;20027;-74
2023/04/30 11:38:36;;;;;;;0.10;0.10;;;18.20;99.90;;;;;;5081584;28;20028;-73
2023/04/30 11:41:03;;;;;;;0.30;0.30;;;18.70;99.90;;;;;;5081198;28;20098;-73
2023/04/30 11:43:30;;;;;;;0.13;0.13;;;19.20;99.90;;;;;;5080722;28;20219;-73
2023/04/30 11:46:14;;;;;;;0.10;0.10;;;19.90;99.90;;;;;;5080772;28;20012;-73
2023/04/30 11:48:43;;;;;;;0.00;0.00;;;20.20;99.90;;;;;;5080704;28;20705;-72
2023/04/30 11:51:20;;;;;;;0.13;0.13;;;20.50;99.90;;;;;;5080685;28;20032;-73
2023/04/30 11:53:48;;;;;;;0.10;0.10;;;20.70;99.90;;;;;;5080317;28;20044;-72
2023/04/30 11:56:20;;;;;;;0.00;0.00;;;20.60;99.90;;;;;;5080518;28;20069;-73
2023/04/30 11:58:47;;;;;;;0.10;0.10;;;20.50;99.90;;;;;;5080456;28;20036;-73
2023/04/30 12:01:13;;;;;;;0.10;0.10;;;20.70;99.90;;;;;;5082066;28;20105;-75
2023/04/30 12:03:44;;;;;;;0.57;0.57;;;20.50;99.90;;;;;;5081649;28;20012;-73
2023/04/30 12:06:24;;;;;;;0.70;0.50;;;20.30;99.90;;;;;;5080771;28;20013;-73
2023/04/30 12:08:53;;;;;;;0.10;0.10;;;20.20;99.90;;;;;;5081796;28;20661;-80
2023/04/30 12:11:21;;;;;;;0.10;0.10;;;19.90;99.90;;;;;;5084307;28;20083;-85
2023/04/30 12:13:51;;;;;;;0.10;0.10;;;20.00;99.90;;;;;;5084260;28;20016;-84
2023/04/30 12:16:18;;;;;;;0.20;0.20;;;20.00;99.90;;;;;;5083803;28;20024;-84
2023/04/30 12:18:45;;;;;;;0.10;0.10;;;20.00;99.90;;;;;;5083831;28;20762;-79
2023/04/30 12:21:11;;;;;;;0.10;0.10;;;20.20;99.90;;;;;;5082722;28;20154;-82
2023/04/30 12:23:37;;;;;;;0.10;0.10;;;19.60;99.90;;;;;;5081011;28;20051;-73
2023/04/30 12:26:03;;;;;;;4.03;3.83;;;19.40;99.90;;;;;;5080323;28;20643;-78
2023/04/30 12:28:28;;;;;;;0.10;0.10;;;19.40;99.90;;;;;;5078415;28;20062;-72
2023/04/30 12:30:54;;;;;;;0.47;0.45;;;19.50;99.90;;;;;;5079631;28;20099;-72
2023/04/30 12:33:20;;;;;;;0.10;0.10;;;19.10;99.90;;;;;;5079041;28;20669;-72
2023/04/30 12:35:46;;;;;;;0.08;0.08;;;19.00;99.90;;;;;;5078301;28;20105;-72
2023/04/30 12:38:17;;;;;;;0.20;0.20;;;19.40;99.90;;;;;;5080200;28;20043;-72
2023/04/30 12:40:49;;;;;;;0.10;0.10;;;20.00;99.90;;;;;;5080151;28;20016;-75
2023/04/30 12:43:16;;;;;;;0.13;0.13;;;20.40;99.90;;;;;;5079963;28;20066;-80
2023/04/30 12:45:53;;;;;;;0.13;0.13;;;20.80;99.90;;;;;;5079861;28;20012;-73
2023/04/30 12:48:24;;;;;;;1.77;1.58;;;21.50;99.90;;;;;;5079666;28;20058;-75
2023/04/30 12:50:55;;;;;;;0.10;0.10;;;22.10;99.90;;;;;;5079456;28;20028;-77
2023/04/30 12:53:22;;;;;;;0.10;0.10;;;21.80;99.90;;;;;;5079935;28;20036;-71
2023/04/30 12:56:11;;;;;;;0.10;0.10;;;22.00;99.90;;;;;;5078005;28;20040;-80